メインページ
METAR-TAF:

METAR-TAF

空港 :

ウィリアムズポート, ペンシルバニア州, アメリカ合衆国

緯度: 41-14-30N, 経度: 076-55-15W, 海抜: 161m

現時点の気象観測

当レポートは45分前の17:54(UTC)に作成
無風
気温 29°C
湿度 52%
気圧 1021 hPa
視程: 16.1km
晴天

METAR: KIPT 261754Z 00000KT 10SM CLR 29/18 A3014 RMK AO2 SLP202 T02940178 10294 20183 58016

時間: 14:39 (18:39 UTC)

予報

当レポートは1時間19分前の17:20(UTC)に作成
予報は26日の 18時(UTC)から 27日の 18時(UTC)まで有効
南/南東の風 4kt
視程: 10km
晴天
27日の 0600時(UTC)から
の風 kt
視程: 9.7km
高度25000ftの雲はほとんどない
27日の 0900時(UTC)から
の風 kt
視程: 9.7km
高度1500ftの千切れ雲あり
27日の 1600時(UTC)から
南東の風 5kt
視程: 10km
高度5000ftの曇り

TAF: KIPT 261720Z 2618/2718 16004KT P6SM SKC FM270600 00000KT 6SM BR FEW250 FM270900 00000KT 6SM BR BKN015 FM271600 14005KT P6SM OVC050

4,000以上の空港の気象観測と天気予報(METAR報とTAF報)

利用可能な観測所は地図上に黄色い丸と赤い丸で示す。

丸の上にカーソルを重ねると観測所名を参照できる。

次にクリックすると気象観測と天気予報を参照できる。

マップの切り替え:黒色「×」印の緑ボタンをクリックして拡大、「-」印の緑ボタンをクリックして縮小、緑色の三角印をクリックして隣りの地図に切り替え


METAR-TAF: